Time;durP1;ratioP1;P1;durP2;ratioP2;P2;SDS_P1;SDS_P2;PMS_P1;PMS_P2;Temp;Humidity;BMP_temperature;BMP_pressure;BME280_temperature;BME280_humidity;BME280_pressure;Samples;Min_cycle;Max_cycle;Signal;HPM_P1;HPM_P2
2024/01/28 00:01:18;;;;;;;;;;;2.10;99.90;;;;;;5109775;27;19930;-75
2024/01/28 00:03:44;;;;;;;;;;;2.10;99.90;;;;;;5112904;27;19930;-75
2024/01/28 00:06:13;;;;;;;;;;;2.10;99.90;;;;;;5132491;27;19942;-75
2024/01/28 00:08:39;;;;;;;;;;;2.10;99.90;;;;;;5097388;28;19924;-75
2024/01/28 00:11:04;;;;;;;;;;;1.90;99.90;;;;;;5095927;27;19972;-76
2024/01/28 00:13:34;;;;;;;;;;;2.00;99.90;;;;;;5119730;27;19927;-75
2024/01/28 00:15:59;;;;;;;;;;;2.00;99.90;;;;;;5112772;27;19955;-76
2024/01/28 00:18:25;;;;;;;;;;;2.00;99.90;;;;;;5112442;27;20006;-76
2024/01/28 00:20:51;;;;;;;;;;;1.90;99.90;;;;;;5131520;27;19924;-75
2024/01/28 00:23:16;;;;;;;;;;;1.90;99.90;;;;;;5131566;27;19931;-75
2024/01/28 00:25:42;;;;;;;;;;;1.90;99.90;;;;;;5129695;27;20367;-75
2024/01/28 00:28:07;;;;;;;;;;;1.90;99.90;;;;;;5148210;27;20309;-75
2024/01/28 00:30:33;;;;;;;;;;;1.90;99.90;;;;;;5114642;27;19947;-76
2024/01/28 00:32:59;;;;;;;;;;;1.80;99.90;;;;;;5110532;27;19949;-75
2024/01/28 00:35:24;;;;;;;;;;;1.80;99.90;;;;;;5113684;27;19940;-75
2024/01/28 00:37:50;;;;;;;;;;;1.80;99.90;;;;;;5109130;28;19924;-75
2024/01/28 00:40:15;;;;;;;;;;;1.80;99.90;;;;;;5111800;27;20007;-75
2024/01/28 00:42:41;;;;;;;;;;;1.70;99.90;;;;;;5112204;27;20158;-75
2024/01/28 00:45:07;;;;;;;;;;;1.70;99.90;;;;;;5129973;27;19923;-76
2024/01/28 00:47:32;;;;;;;;;;;1.70;99.90;;;;;;5130458;27;19924;-76
2024/01/28 00:49:58;;;;;;;;;;;1.70;99.90;;;;;;5131077;27;20394;-76
2024/01/28 00:52:24;;;;;;;;;;;1.70;99.90;;;;;;5120816;27;19924;-75
2024/01/28 00:54:49;;;;;;;;;;;1.60;99.90;;;;;;5112062;27;19963;-76
2024/01/28 00:57:15;;;;;;;;;;;1.60;99.90;;;;;;5128917;27;20363;-75
2024/01/28 00:59:40;;;;;;;;;;;1.80;99.90;;;;;;5129345;27;19929;-75
2024/01/28 01:02:06;;;;;;;;;;;2.30;99.90;;;;;;5111675;27;19931;-73
2024/01/28 01:04:32;;;;;;;;;;;1.50;99.90;;;;;;5112479;27;19932;-73
2024/01/28 01:06:57;;;;;;;;;;;1.50;99.90;;;;;;5107693;28;20306;-74
2024/01/28 01:09:23;;;;;;;;;;;1.50;99.90;;;;;;5107692;27;19924;-73
2024/01/28 01:11:48;;;;;;;;;;;1.50;99.90;;;;;;5106945;28;19934;-75
2024/01/28 01:14:14;;;;;;;;;;;1.50;99.90;;;;;;5126826;27;19925;-75
2024/01/28 01:16:39;;;;;;;;;;;1.50;99.90;;;;;;5112119;27;20286;-75
2024/01/28 01:19:05;;;;;;;;;;;1.50;99.90;;;;;;5130159;27;19924;-73
2024/01/28 01:21:31;;;;;;;;;;;1.80;99.90;;;;;;5110739;28;19924;-73
2024/01/28 01:23:56;;;;;;;;;;;1.50;99.90;;;;;;5130008;27;19973;-73
2024/01/28 01:26:22;;;;;;;;;;;2.20;99.90;;;;;;5129923;27;19923;-73
2024/01/28 01:28:48;;;;;;;;;;;1.50;99.90;;;;;;5104763;28;19924;-73
2024/01/28 01:31:13;;;;;;;;;;;1.50;99.90;;;;;;5092248;28;19928;-76
2024/01/28 01:33:41;;;;;;;;;;;1.50;99.90;;;;;;5116161;27;19955;-76
2024/01/28 01:36:06;;;;;;;;;;;1.50;99.90;;;;;;5095488;28;19986;-75
2024/01/28 01:38:32;;;;;;;;;;;1.90;99.90;;;;;;5129899;28;19971;-75
2024/01/28 01:41:02;;;;;;;;;;;1.50;99.90;;;;;;5129904;27;20447;-76
2024/01/28 01:43:32;;;;;;;;;;;1.50;99.90;;;;;;5128286;28;20018;-75
2024/01/28 01:45:58;;;;;;;;;;;1.50;99.90;;;;;;5130528;28;20002;-75
2024/01/28 01:48:24;;;;;;;;;;;2.50;99.90;;;;;;5107090;28;20019;-76
2024/01/28 01:50:50;;;;;;;;;;;1.50;99.90;;;;;;5091131;28;19946;-75
2024/01/28 01:53:16;;;;;;;;;;;1.50;99.90;;;;;;5096195;27;19924;-75
2024/01/28 01:55:42;;;;;;;;;;;1.50;99.90;;;;;;5129013;28;19930;-75
2024/01/28 01:58:08;;;;;;;;;;;1.60;99.90;;;;;;5128018;27;19927;-76
2024/01/28 02:00:34;;;;;;;;;;;1.50;99.90;;;;;;5115347;27;19931;-75
2024/01/28 02:03:03;;;;;;;;;;;1.50;99.90;;;;;;5132939;27;19923;-75
2024/01/28 02:05:28;;;;;;;;;;;1.50;99.90;;;;;;5116614;27;20291;-75
2024/01/28 02:07:54;;;;;;;;;;;2.80;99.90;;;;;;5115813;27;19930;-75
2024/01/28 02:10:22;;;;;;;;;;;1.50;99.90;;;;;;5101150;28;20362;-75
2024/01/28 02:12:49;;;;;;;;;;;2.10;99.90;;;;;;5112050;27;20014;-75
2024/01/28 02:15:16;;;;;;;;;;;1.50;99.90;;;;;;5115971;27;19978;-75
2024/01/28 02:17:41;;;;;;;;;;;1.50;99.90;;;;;;5114848;27;19924;-75
2024/01/28 02:20:08;;;;;;;;;;;2.20;99.90;;;;;;5132285;27;20060;-75
2024/01/28 02:22:34;;;;;;;;;;;1.50;99.90;;;;;;5134026;27;19930;-76
2024/01/28 02:25:00;;;;;;;;;;;1.60;99.90;;;;;;5114745;27;19931;-75
2024/01/28 02:27:25;;;;;;;;;;;1.50;99.90;;;;;;5112901;27;20394;-76
2024/01/28 02:29:51;;;;;;;;;;;1.60;99.90;;;;;;5114611;27;19932;-75
2024/01/28 02:32:17;;;;;;;;;;;1.60;99.90;;;;;;5115310;27;19923;-76
2024/01/28 02:34:43;;;;;;;;;;;2.20;99.90;;;;;;5132972;27;19924;-75
2024/01/28 02:37:11;;;;;;;;;;;1.60;99.90;;;;;;5115098;27;19931;-75
2024/01/28 02:39:37;;;;;;;;;;;0.80;99.90;;;;;;5115156;27;20022;-75
2024/01/28 02:42:03;;;;;;;;;;;1.60;99.90;;;;;;5132071;27;20018;-73
2024/01/28 02:44:29;;;;;;;;;;;1.60;99.90;;;;;;5133678;27;19969;-75
2024/01/28 02:46:55;;;;;;;;;;;0.90;99.90;;;;;;5114327;27;20328;-75
2024/01/28 02:49:23;;;;;;;;;;;1.60;99.90;;;;;;5133869;27;19929;-76
2024/01/28 02:51:50;;;;;;;;;;;1.60;99.90;;;;;;5113599;27;19923;-75
2024/01/28 02:54:15;;;;;;;;;;;1.60;99.90;;;;;;5133663;27;19927;-75
2024/01/28 02:56:41;;;;;;;;;;;1.60;99.90;;;;;;5110771;28;19924;-76
2024/01/28 02:59:06;;;;;;;;;;;1.60;99.90;;;;;;5118963;27;19934;-75
2024/01/28 03:01:32;;;;;;;;;;;1.70;99.90;;;;;;5110415;27;19924;-75
2024/01/28 03:03:57;;;;;;;;;;;2.80;99.90;;;;;;5132631;27;19923;-75
2024/01/28 03:06:23;;;;;;;;;;;1.70;99.90;;;;;;5114345;27;20005;-75
2024/01/28 03:08:49;;;;;;;;;;;1.70;99.90;;;;;;5095981;28;19955;-75
2024/01/28 03:11:15;;;;;;;;;;;0.30;99.90;;;;;;5097730;27;19953;-76
2024/01/28 03:13:40;;;;;;;;;;;1.70;99.90;;;;;;5111065;27;19929;-75
2024/01/28 03:16:06;;;;;;;;;;;2.30;99.90;;;;;;5132923;27;19931;-75
2024/01/28 03:18:31;;;;;;;;;;;1.70;99.90;;;;;;5114108;27;19930;-75
2024/01/28 03:20:57;;;;;;;;;;;3.00;99.90;;;;;;5132099;27;19923;-75
2024/01/28 03:23:23;;;;;;;;;;;1.80;99.90;;;;;;5114371;27;19957;-75
2024/01/28 03:25:48;;;;;;;;;;;1.70;99.90;;;;;;5113325;27;19930;-75
2024/01/28 03:28:14;;;;;;;;;;;1.80;99.90;;;;;;5112589;27;20256;-75
2024/01/28 03:30:39;;;;;;;;;;;2.90;99.90;;;;;;5114302;27;20018;-75
2024/01/28 03:33:05;;;;;;;;;;;1.70;99.90;;;;;;5132329;27;19931;-75
2024/01/28 03:35:30;;;;;;;;;;;0.70;99.90;;;;;;5113608;27;20286;-75
2024/01/28 03:37:56;;;;;;;;;;;3.40;99.90;;;;;;5114289;27;19977;-74
2024/01/28 03:40:22;;;;;;;;;;;1.80;99.90;;;;;;5132787;27;19931;-74
2024/01/28 03:42:47;;;;;;;;;;;1.80;99.90;;;;;;5107450;27;19924;-74
2024/01/28 03:45:13;;;;;;;;;;;1.80;99.90;;;;;;5132105;27;20409;-74
2024/01/28 03:47:39;;;;;;;;;;;1.80;99.90;;;;;;5114045;27;20007;-73
2024/01/28 03:50:05;;;;;;;;;;;1.80;99.90;;;;;;5112234;27;20019;-73
2024/01/28 03:52:31;;;;;;;;;;;1.80;99.90;;;;;;5113700;27;19963;-74
2024/01/28 03:54:59;;;;;;;;;;;1.80;99.90;;;;;;5130523;27;19930;-74
2024/01/28 03:57:25;;;;;;;;;;;1.80;99.90;;;;;;5130380;27;19930;-74
2024/01/28 03:59:51;;;;;;;;;;;1.80;99.90;;;;;;5131316;27;19924;-74
2024/01/28 04:02:18;;;;;;;;;;;1.80;99.90;;;;;;5113494;27;20362;-74
2024/01/28 04:04:43;;;;;;;;;;;1.70;99.90;;;;;;5113939;27;19923;-74
2024/01/28 04:07:09;;;;;;;;;;;1.70;99.90;;;;;;5113537;27;19924;-74
2024/01/28 04:09:37;;;;;;;;;;;1.80;99.90;;;;;;5108803;28;19931;-74
2024/01/28 04:12:04;;;;;;;;;;;1.70;99.90;;;;;;5113320;27;19945;-74
2024/01/28 04:14:30;;;;;;;;;;;1.70;99.90;;;;;;5110133;28;20340;-74
2024/01/28 04:16:56;;;;;;;;;;;1.70;99.90;;;;;;5092406;28;19932;-74
2024/01/28 04:19:22;;;;;;;;;;;1.70;99.90;;;;;;5106424;28;19927;-73
2024/01/28 04:21:51;;;;;;;;;;;1.70;99.90;;;;;;5110102;28;20372;-74
2024/01/28 04:24:17;;;;;;;;;;;1.80;99.90;;;;;;5110662;28;20026;-74
2024/01/28 04:26:43;;;;;;;;;;;1.80;99.90;;;;;;5124860;27;19926;-74
2024/01/28 04:29:08;;;;;;;;;;;2.30;99.90;;;;;;5111680;27;19927;-73
2024/01/28 04:31:34;;;;;;;;;;;1.80;99.90;;;;;;5112494;27;19925;-73
2024/01/28 04:33:59;;;;;;;;;;;1.80;99.90;;;;;;5111900;27;19923;-73
2024/01/28 04:36:28;;;;;;;;;;;1.70;99.90;;;;;;5113303;27;19930;-73
2024/01/28 04:38:53;;;;;;;;;;;1.80;99.90;;;;;;5130482;27;20334;-74
2024/01/28 04:41:20;;;;;;;;;;;1.70;99.90;;;;;;5131530;27;19924;-74
2024/01/28 04:43:45;;;;;;;;;;;1.80;99.90;;;;;;5129837;27;20002;-74
2024/01/28 04:46:13;;;;;;;;;;;1.70;99.90;;;;;;5111952;27;20395;-74
2024/01/28 04:48:38;;;;;;;;;;;2.40;99.90;;;;;;5113052;27;19984;-74
2024/01/28 04:51:04;;;;;;;;;;;2.70;99.90;;;;;;5112807;27;20768;-73
2024/01/28 04:53:29;;;;;;;;;;;1.70;99.90;;;;;;5092152;28;19947;-74
2024/01/28 04:55:55;;;;;;;;;;;1.80;99.90;;;;;;5103094;27;19923;-73
2024/01/28 04:58:22;;;;;;;;;;;1.60;99.90;;;;;;5119480;27;19931;-73
2024/01/28 05:00:48;;;;;;;;;;;1.60;99.90;;;;;;5111820;27;19930;-73
2024/01/28 05:03:13;;;;;;;;;;;1.50;99.90;;;;;;5112995;27;19924;-74
2024/01/28 05:05:39;;;;;;;;;;;1.50;99.90;;;;;;5112583;27;19949;-74
2024/01/28 05:08:06;;;;;;;;;;;1.50;99.90;;;;;;5112249;27;19927;-74
2024/01/28 05:10:32;;;;;;;;;;;1.50;99.90;;;;;;5131053;27;19931;-73
2024/01/28 05:12:59;;;;;;;;;;;2.40;99.90;;;;;;5098472;28;19924;-74
2024/01/28 05:15:26;;;;;;;;;;;1.40;99.90;;;;;;5109870;27;19930;-73
2024/01/28 05:17:51;;;;;;;;;;;1.40;99.90;;;;;;5111833;27;19924;-74
2024/01/28 05:20:17;;;;;;;;;;;1.40;99.90;;;;;;5111461;27;19923;-74
2024/01/28 05:22:43;;;;;;;;;;;1.30;99.90;;;;;;5129893;27;20384;-74
2024/01/28 05:25:09;;;;;;;;;;;1.30;99.90;;;;;;5129312;27;20030;-75
2024/01/28 05:27:37;;;;;;;;;;;1.30;99.90;;;;;;5128691;27;20382;-75
2024/01/28 05:30:03;;;;;;;;;;;1.30;99.90;;;;;;5111947;28;19930;-75
2024/01/28 05:32:28;;;;;;;;;;;1.30;99.90;;;;;;5130385;27;19931;-73
2024/01/28 05:34:56;;;;;;;;;;;1.30;99.90;;;;;;5111263;28;19942;-73
2024/01/28 05:37:23;;;;;;;;;;;2.50;99.90;;;;;;5130976;28;20023;-73
2024/01/28 05:39:48;;;;;;;;;;;1.20;99.90;;;;;;5130476;28;20002;-73
2024/01/28 05:42:14;;;;;;;;;;;2.70;99.90;;;;;;5110527;28;20342;-73
2024/01/28 05:44:42;;;;;;;;;;;1.20;99.90;;;;;;5130315;27;20005;-73
2024/01/28 05:47:08;;;;;;;;;;;1.20;99.90;;;;;;5111850;28;19927;-73
2024/01/28 05:49:33;;;;;;;;;;;1.20;99.90;;;;;;5111810;28;19971;-73
2024/01/28 05:51:59;;;;;;;;;;;1.20;99.90;;;;;;5111575;28;19934;-73
2024/01/28 05:54:25;;;;;;;;;;;1.20;99.90;;;;;;5130008;28;19990;-74
2024/01/28 05:56:50;;;;;;;;;;;1.20;99.90;;;;;;5109549;28;20338;-74
2024/01/28 05:59:16;;;;;;;;;;;1.10;99.90;;;;;;5111070;28;19935;-74
2024/01/28 06:01:42;;;;;;;;;;;1.10;99.90;;;;;;5111618;28;19924;-74
2024/01/28 06:04:09;;;;;;;;;;;1.10;99.90;;;;;;5110419;28;20740;-74
2024/01/28 06:06:35;;;;;;;;;;;1.10;99.90;;;;;;5094298;28;19920;-74
2024/01/28 06:09:00;;;;;;;;;;;1.10;99.90;;;;;;5109614;28;19958;-74
2024/01/28 06:11:27;;;;;;;;;;;1.10;99.90;;;;;;5111448;28;19967;-74
2024/01/28 06:13:53;;;;;;;;;;;1.10;99.90;;;;;;5102700;28;19923;-74
2024/01/28 06:16:18;;;;;;;;;;;1.10;99.90;;;;;;5110590;28;19976;-74
2024/01/28 06:18:43;;;;;;;;;;;1.00;99.90;;;;;;5093427;28;19978;-74
2024/01/28 06:21:10;;;;;;;;;;;1.00;99.90;;;;;;5100462;28;20002;-74
2024/01/28 06:23:36;;;;;;;;;;;1.00;99.90;;;;;;5111214;28;20043;-74
2024/01/28 06:26:01;;;;;;;;;;;1.00;99.90;;;;;;5111213;28;20386;-74
2024/01/28 06:28:27;;;;;;;;;;;1.00;99.90;;;;;;5110528;28;19930;-73
2024/01/28 06:30:52;;;;;;;;;;;1.00;99.90;;;;;;5110889;28;20106;-74
2024/01/28 06:33:18;;;;;;;;;;;1.00;99.90;;;;;;5111574;28;19965;-74
2024/01/28 06:35:43;;;;;;;;;;;1.00;99.90;;;;;;5113952;28;19924;-74
2024/01/28 06:38:09;;;;;;;;;;;0.90;99.90;;;;;;5110911;28;19920;-74
2024/01/28 06:40:34;;;;;;;;;;;0.90;99.90;;;;;;5111498;28;19931;-74
2024/01/28 06:43:00;;;;;;;;;;;1.30;99.90;;;;;;5109926;28;19968;-74
2024/01/28 06:45:26;;;;;;;;;;;0.90;99.90;;;;;;5109684;28;19972;-74
2024/01/28 06:47:52;;;;;;;;;;;0.90;99.90;;;;;;5112587;27;19924;-74
2024/01/28 06:50:19;;;;;;;;;;;0.80;99.90;;;;;;5131895;27;20335;-73
2024/01/28 06:52:44;;;;;;;;;;;0.80;99.90;;;;;;5113595;27;19924;-74
2024/01/28 06:55:10;;;;;;;;;;;0.80;99.90;;;;;;5114784;27;19937;-74
2024/01/28 06:57:36;;;;;;;;;;;0.80;99.90;;;;;;5114205;27;20314;-74
2024/01/28 07:00:04;;;;;;;;;;;0.70;99.90;;;;;;5113633;27;20507;-74
2024/01/28 07:02:30;;;;;;;;;;;0.70;99.90;;;;;;5113333;27;19984;-74
2024/01/28 07:04:56;;;;;;;;;;;0.70;99.90;;;;;;5114956;27;19923;-74
2024/01/28 07:07:21;;;;;;;;;;;0.70;99.90;;;;;;5114491;27;19931;-74
2024/01/28 07:09:47;;;;;;;;;;;0.60;99.90;;;;;;5114059;27;19919;-74
2024/01/28 07:12:12;;;;;;;;;;;0.60;99.90;;;;;;5112664;27;20294;-74
2024/01/28 07:14:38;;;;;;;;;;;0.60;99.90;;;;;;5108746;27;20386;-74
2024/01/28 07:17:03;;;;;;;;;;;0.60;99.90;;;;;;5112044;27;19933;-74
2024/01/28 07:19:29;;;;;;;;;;;0.60;99.90;;;;;;5113778;27;19930;-74
2024/01/28 07:21:55;;;;;;;;;;;0.60;99.90;;;;;;5113349;27;19923;-74
2024/01/28 07:24:20;;;;;;;;;;;0.50;99.90;;;;;;5114421;27;19959;-75
2024/01/28 07:26:46;;;;;;;;;;;0.50;99.90;;;;;;5113437;27;20453;-77
2024/01/28 07:29:11;;;;;;;;;;;0.50;99.90;;;;;;5113031;27;20367;-80
2024/01/28 07:31:38;;;;;;;;;;;0.50;99.90;;;;;;5112985;27;20319;-79
2024/01/28 07:34:03;;;;;;;;;;;0.50;99.90;;;;;;5116128;27;19927;-79
2024/01/28 07:36:30;;;;;;;;;;;0.50;99.90;;;;;;5125858;27;19930;-81
2024/01/28 07:38:56;;;;;;;;;;;0.50;99.90;;;;;;5113070;27;20356;-81
2024/01/28 07:41:21;;;;;;;;;;;0.50;99.90;;;;;;5113074;27;19941;-78
2024/01/28 07:43:47;;;;;;;;;;;0.50;99.90;;;;;;5110912;27;20366;-78
2024/01/28 07:46:12;;;;;;;;;;;0.50;99.90;;;;;;5109787;27;19923;-73
2024/01/28 07:48:39;;;;;;;;;;;0.50;99.90;;;;;;5109766;28;19969;-78
2024/01/28 07:51:04;;;;;;;;;;;0.50;99.90;;;;;;5112797;27;20379;-78
2024/01/28 07:53:30;;;;;;;;;;;0.50;99.90;;;;;;5113296;27;19974;-78
2024/01/28 07:55:55;;;;;;;;;;;0.50;99.90;;;;;;5112181;27;20026;-77
2024/01/28 07:58:21;;;;;;;;;;;0.50;99.90;;;;;;5112311;27;19938;-77
2024/01/28 08:00:46;;;;;;;;;;;0.60;99.90;;;;;;5112500;27;20293;-78
2024/01/28 08:03:12;;;;;;;;;;;0.60;99.90;;;;;;5111231;27;19923;-78
2024/01/28 08:05:37;;;;;;;;;;;0.60;99.90;;;;;;5113563;27;20385;-78
2024/01/28 08:08:03;;;;;;;;;;;0.60;99.90;;;;;;5112562;27;19931;-77
2024/01/28 08:10:29;;;;;;;;;;;0.60;99.90;;;;;;5108593;28;20432;-74
2024/01/28 08:12:54;;;;;;;;;;;0.70;99.90;;;;;;5111324;27;19931;-77
2024/01/28 08:15:20;;;;;;;;;;;0.80;99.90;;;;;;5105714;27;19924;-77
2024/01/28 08:17:46;;;;;;;;;;;0.70;99.90;;;;;;5111504;27;19950;-73
2024/01/28 08:20:11;;;;;;;;;;;0.70;99.90;;;;;;5112747;27;19992;-74
2024/01/28 08:22:37;;;;;;;;;;;0.80;99.90;;;;;;5112268;27;19924;-73
2024/01/28 08:25:04;;;;;;;;;;;0.80;99.90;;;;;;5112088;27;20470;-74
2024/01/28 08:27:30;;;;;;;;;;;0.80;99.90;;;;;;5110006;27;19923;-74
2024/01/28 08:29:56;;;;;;;;;;;0.90;99.90;;;;;;5111267;27;19934;-74
2024/01/28 08:32:21;;;;;;;;;;;0.90;99.90;;;;;;5112498;27;19923;-74
2024/01/28 08:34:49;;;;;;;;;;;0.90;99.90;;;;;;5113104;27;20006;-74
2024/01/28 08:37:15;;;;;;;;;;;0.80;99.90;;;;;;5110786;27;19943;-72
2024/01/28 08:39:40;;;;;;;;;;;0.90;99.90;;;;;;5119139;27;19992;-72
2024/01/28 08:42:06;;;;;;;;;;;0.90;99.90;;;;;;5111245;27;19975;-73
2024/01/28 08:44:31;;;;;;;;;;;0.90;99.90;;;;;;5112249;27;19930;-72
2024/01/28 08:46:57;;;;;;;;;;;0.90;99.90;;;;;;5112091;27;19923;-72
2024/01/28 08:49:22;;;;;;;;;;;0.90;99.90;;;;;;5130407;27;20298;-73
2024/01/28 08:51:48;;;;;;;;;;;1.00;99.90;;;;;;5108652;28;20432;-73
2024/01/28 08:54:13;;;;;;;;;;;1.00;99.90;;;;;;5099443;27;19966;-73
2024/01/28 08:56:39;;;;;;;;;;;1.10;99.90;;;;;;5111319;27;19927;-73
2024/01/28 08:59:05;;;;;;;;;;;1.10;99.90;;;;;;5110603;27;19982;-72
2024/01/28 09:01:30;;;;;;;;;;;1.20;99.90;;;;;;5131404;27;20430;-73
2024/01/28 09:03:56;;;;;;;;;;;1.20;99.90;;;;;;5112355;27;19928;-73
2024/01/28 09:06:21;;;;;;;;;;;1.20;99.90;;;;;;5110694;27;19923;-73
2024/01/28 09:08:47;;;;;;;;;;;1.20;99.90;;;;;;5130944;27;19923;-73
2024/01/28 09:11:13;;;;;;;;;;;1.30;99.90;;;;;;5112299;27;20027;-73
2024/01/28 09:13:38;;;;;;;;;;;1.30;99.90;;;;;;5110000;27;19928;-73
2024/01/28 09:16:04;;;;;;;;;;;1.40;99.90;;;;;;5125430;27;19928;-81
2024/01/28 09:18:29;;;;;;;;;;;1.40;99.90;;;;;;5108855;28;20241;-73
2024/01/28 09:20:55;;;;;;;;;;;1.50;99.90;;;;;;5110437;27;19927;-73
2024/01/28 09:23:20;;;;;;;;;;;1.50;99.90;;;;;;5112604;27;19927;-75
2024/01/28 09:25:46;;;;;;;;;;;1.60;99.90;;;;;;5129278;27;19976;-72
2024/01/28 09:28:11;;;;;;;;;;;1.60;99.90;;;;;;5110613;28;19923;-73
2024/01/28 09:30:41;;;;;;;;;;;1.70;99.90;;;;;;5112367;28;19927;-73
2024/01/28 09:33:08;;;;;;;;;;;1.80;99.90;;;;;;5111202;28;20059;-73
2024/01/28 09:35:34;;;;;;;;;;;1.90;99.90;;;;;;5112735;28;19923;-73
2024/01/28 09:37:59;;;;;;;;;;;1.90;99.90;;;;;;5129414;27;19927;-73
2024/01/28 09:40:25;;;;;;;;;;;2.00;99.90;;;;;;5106620;28;19924;-73
2024/01/28 09:43:10;;;;;;;;;;;2.10;99.90;;;;;;5106414;28;19930;-73
2024/01/28 09:45:35;;;;;;;;;;;2.20;99.90;;;;;;5111254;28;19968;-73
2024/01/28 09:48:02;;;;;;;;;;;2.40;99.90;;;;;;5128994;28;19923;-73
2024/01/28 09:50:27;;;;;;;;;;;2.50;99.90;;;;;;5112210;28;19930;-73
2024/01/28 09:52:53;;;;;;;;;;;2.60;99.90;;;;;;5114736;28;19927;-73
2024/01/28 09:55:18;;;;;;;;;;;4.30;99.90;;;;;;5103245;28;20418;-73
2024/01/28 09:57:45;;;;;;;;;;;2.90;99.90;;;;;;5127292;28;19923;-74
2024/01/28 10:00:11;;;;;;;;;;;3.00;99.90;;;;;;5111022;28;19924;-72
2024/01/28 10:02:38;;;;;;;;;;;3.10;99.90;;;;;;5111645;28;20316;-72
2024/01/28 10:05:05;;;;;;;;;;;3.20;99.90;;;;;;5129902;28;20010;-72
2024/01/28 10:07:39;;;;;;;;;;;3.30;99.90;;;;;;5112080;28;19924;-72
2024/01/28 10:10:06;;;;;;;;;;;2.40;99.90;;;;;;5110737;28;19927;-73
2024/01/28 10:12:32;;;;;;;;;;;3.30;99.90;;;;;;5111005;28;19923;-72
2024/01/28 10:14:57;;;;;;;;;;;3.30;99.90;;;;;;5110384;28;20405;-72
2024/01/28 10:17:23;;;;;;;;;;;3.30;99.90;;;;;;5103325;28;19992;-71
2024/01/28 10:19:48;;;;;;;;;;;3.40;99.90;;;;;;5112893;28;19946;-73
2024/01/28 10:22:14;;;;;;;;;;;3.40;99.90;;;;;;5112975;28;20042;-72
2024/01/28 10:24:42;;;;;;;;;;;3.30;99.90;;;;;;5124568;27;20410;-72
2024/01/28 10:27:08;;;;;;;;;;;3.30;99.90;;;;;;5131215;27;19938;-73
2024/01/28 10:29:33;;;;;;;;;;;3.30;99.90;;;;;;5115090;27;19923;-71
2024/01/28 10:31:59;;;;;;;;;;;3.20;99.90;;;;;;5114097;27;19959;-72
2024/01/28 10:34:25;;;;;;;;;;;3.30;99.90;;;;;;5112330;28;19928;-72
2024/01/28 10:36:51;;;;;;;;;;;3.40;99.90;;;;;;5111140;28;19984;-72
2024/01/28 10:39:17;;;;;;;;;;;3.40;99.90;;;;;;5113476;28;19924;-72
2024/01/28 10:41:43;;;;;;;;;;;3.90;99.90;;;;;;5114758;27;19923;-72
2024/01/28 10:44:08;;;;;;;;;;;3.80;99.90;;;;;;5113332;27;19935;-72
2024/01/28 10:46:36;;;;;;;;;;;3.70;99.90;;;;;;5115749;27;20367;-72
2024/01/28 10:49:04;;;;;;;;;;;4.10;99.90;;;;;;5114711;27;19927;-72
2024/01/28 10:51:31;;;;;;;;;;;4.40;99.90;;;;;;5110817;28;19924;-72
2024/01/28 10:53:57;;;;;;;;;;;4.90;99.90;;;;;;5102238;27;19927;-72
2024/01/28 10:56:23;;;;;;;;;;;5.50;99.90;;;;;;5115277;27;19923;-72
2024/01/28 10:58:49;;;;;;;;;;;6.10;99.90;;;;;;5113023;27;20294;-73
2024/01/28 11:01:15;;;;;;;;;;;6.30;99.90;;;;;;5133491;27;20014;-72
2024/01/28 11:03:41;;;;;;;;;;;6.90;99.90;;;;;;5133662;27;19927;-71
2024/01/28 11:06:07;;;;;;;;;;;6.70;99.90;;;;;;5132136;27;20283;-72
2024/01/28 11:08:32;;;;;;;;;;;6.80;99.90;;;;;;5133286;27;19931;-72
2024/01/28 11:10:59;;;;;;;;;;;7.00;99.90;;;;;;5114581;27;20378;-72
2024/01/28 11:13:24;;;;;;;;;;;7.80;99.90;;;;;;5131286;27;19923;-72
2024/01/28 11:15:50;;;;;;;;;;;8.80;99.90;;;;;;5114432;27;19923;-72
2024/01/28 11:18:16;;;;;;;;;;;9.80;99.90;;;;;;5125747;27;19930;-72
2024/01/28 11:20:41;;;;;;;;;;;10.60;99.90;;;;;;5131569;27;19923;-72
2024/01/28 11:23:13;;;;;;;;;;;10.90;99.90;;;;;;5131381;27;19930;-72
2024/01/28 11:25:39;;;;;;;;;;;11.00;99.90;;;;;;5130925;27;19923;-72
2024/01/28 11:28:05;;;;;;;;;;;10.80;99.90;;;;;;5131831;27;20088;-72
2024/01/28 11:30:31;;;;;;;;;;;10.70;99.90;;;;;;5113796;27;20014;-73
2024/01/28 11:33:07;;;;;;;;;;;10.40;99.90;;;;;;5130989;27;19924;-72
2024/01/28 11:35:33;;;;;;;;;;;10.20;99.90;;;;;;5133002;27;19995;-72
2024/01/28 11:38:01;;;;;;;;;;;9.90;99.90;;;;;;5113499;27;19928;-72
2024/01/28 11:40:29;;;;;;;;;;;9.60;99.90;;;;;;5132148;27;19930;-73
2024/01/28 11:42:55;;;;;;;;;;;9.50;99.90;;;;;;5131183;27;19967;-72
2024/01/28 11:45:21;;;;;;;;;;;9.20;99.90;;;;;;5132746;27;19931;-72
2024/01/28 11:47:47;;;;;;;;;;;9.40;99.90;;;;;;5131419;27;19923;-73
2024/01/28 11:50:12;;;;;;;;;;;9.10;99.90;;;;;;5132553;27;20019;-72
2024/01/28 11:52:38;;;;;;;;;;;8.60;99.90;;;;;;5114166;27;19931;-73
2024/01/28 11:55:10;;;;;;;;;;;8.60;99.90;;;;;;5111440;27;20077;-72
2024/01/28 11:57:36;;;;;;;;;;;8.40;99.90;;;;;;5113054;27;20021;-72
2024/01/28 12:00:03;;;;;;;;;;;8.30;99.90;;;;;;5113490;27;20341;-72
2024/01/28 12:02:28;;;;;;;;;;;8.30;99.90;;;;;;5131309;27;20405;-72
2024/01/28 12:04:55;;;;;;;;;;;8.30;99.90;;;;;;5132059;27;19923;-73
2024/01/28 12:07:21;;;;;;;;;;;8.30;99.90;;;;;;5113907;27;19952;-71
2024/01/28 12:09:49;;;;;;;;;;;8.30;99.90;;;;;;5131327;27;19927;-73
2024/01/28 12:12:14;;;;;;;;;;;8.40;99.90;;;;;;5131334;27;19923;-72
2024/01/28 12:14:41;;;;;;;;;;;8.50;99.90;;;;;;5120137;27;19924;-72
2024/01/28 12:17:07;;;;;;;;;;;8.70;99.90;;;;;;5106952;27;19973;-72
2024/01/28 12:19:32;;;;;;;;;;;9.10;99.90;;;;;;5102046;28;19951;-73
2024/01/28 12:21:58;;;;;;;;;;;9.30;99.90;;;;;;5109485;28;19924;-72
2024/01/28 12:24:23;;;;;;;;;;;10.10;99.90;;;;;;5120704;27;19923;-73
2024/01/28 12:26:49;;;;;;;;;;;11.40;99.90;;;;;;5130969;27;20409;-72
2024/01/28 12:29:15;;;;;;;;;;;12.80;99.90;;;;;;5130291;27;19930;-73
2024/01/28 12:31:40;;;;;;;;;;;14.40;99.90;;;;;;5113190;27;19924;-73
2024/01/28 12:34:18;;;;;;;;;;;15.90;99.90;;;;;;5130880;27;19984;-72
2024/01/28 12:36:43;;;;;;;;;;;17.50;99.90;;;;;;5130957;27;19930;-73
2024/01/28 12:39:09;;;;;;;;;;;19.00;99.90;;;;;;5131120;27;19924;-73
2024/01/28 12:41:34;;;;;;;;;;;20.30;99.10;;;;;;5130563;27;19928;-73
2024/01/28 12:44:00;;;;;;;;;;;21.40;97.30;;;;;;5129230;27;19923;-73
2024/01/28 12:46:25;;;;;;;;;;;22.40;94.50;;;;;;5131477;27;20015;-73
2024/01/28 12:48:51;;;;;;;;;;;23.10;93.40;;;;;;5112451;27;19930;-73
2024/01/28 12:51:16;;;;;;;;;;;23.60;91.40;;;;;;5129190;27;20647;-73
2024/01/28 12:53:42;;;;;;;;;;;24.10;90.10;;;;;;5112512;27;20050;-73
2024/01/28 12:56:08;;;;;;;;;;;24.20;87.40;;;;;;5131432;27;20446;-73
2024/01/28 12:58:33;;;;;;;;;;;24.30;84.50;;;;;;5129514;27;20311;-73
2024/01/28 13:00:59;;;;;;;;;;;24.50;79.90;;;;;;5130776;27;19930;-73
2024/01/28 13:03:24;;;;;;;;;;;24.80;80.30;;;;;;5131143;27;19950;-72
2024/01/28 13:05:50;;;;;;;;;;;25.30;77.90;;;;;;5112066;27;20014;-73
2024/01/28 13:08:16;;;;;;;;;;;25.80;72.70;;;;;;5131728;27;19963;-73
2024/01/28 13:10:41;;;;;;;;;;;26.10;72.10;;;;;;5131451;27;19934;-73
2024/01/28 13:13:07;;;;;;;;;;;26.50;68.40;;;;;;5128719;27;20022;-73
2024/01/28 13:15:32;;;;;;;;;;;26.80;66.60;;;;;;5121101;27;19976;-73
2024/01/28 13:17:58;;;;;;;;;;;26.90;61.40;;;;;;5109581;28;19930;-73
2024/01/28 13:20:23;;;;;;;;;;;27.20;56.80;;;;;;5113317;28;19976;-72
2024/01/28 13:22:49;;;;;;;;;;;26.80;51.60;;;;;;5108311;28;19924;-73
2024/01/28 13:25:15;;;;;;;;;;;25.50;45.50;;;;;;5105025;27;19928;-73
2024/01/28 13:27:40;;;;;;;;;;;23.70;43.20;;;;;;5130458;27;20355;-73
2024/01/28 13:30:07;;;;;;;;;;;22.00;43.30;;;;;;5129747;27;20374;-72
2024/01/28 13:32:34;;;;;;;;;;;20.40;42.30;;;;;;5130307;27;19973;-72
2024/01/28 13:35:00;;;;;;;;;;;18.90;43.40;;;;;;5112064;28;19924;-73
2024/01/28 13:37:27;;;;;;;;;;;17.60;44.50;;;;;;5130649;27;19927;-72
2024/01/28 13:39:52;;;;;;;;;;;16.50;44.30;;;;;;5111404;28;19923;-72
2024/01/28 13:42:18;;;;;;;;;;;15.50;45.80;;;;;;5130206;28;20326;-72
2024/01/28 13:44:43;;;;;;;;;;;14.60;47.30;;;;;;5130144;27;19951;-72
2024/01/28 13:47:09;;;;;;;;;;;13.90;48.00;;;;;;5129299;27;19946;-72
2024/01/28 13:49:34;;;;;;;;;;;13.10;48.80;;;;;;5130784;28;20409;-73
2024/01/28 13:52:00;;;;;;;;;;;12.40;48.90;;;;;;5110957;27;20576;-75
2024/01/28 13:54:25;;;;;;;;;;;11.70;50.50;;;;;;5113551;27;19927;-72
2024/01/28 13:56:51;;;;;;;;;;;11.40;52.20;;;;;;5114395;27;19923;-73
2024/01/28 13:59:17;;;;;;;;;;;;;;;;;;5115322;27;19931;-72
2024/01/28 14:01:43;;;;;;;;;;;;;;;;;;5133171;27;19923;-72
2024/01/28 14:04:08;;;;;;;;;;;10.10;55.50;;;;;;5133646;27;20064;-73
2024/01/28 14:06:34;;;;;;;;;;;10.10;56.90;;;;;;5116510;27;19924;-73
2024/01/28 14:08:59;;;;;;;;;;;9.80;58.60;;;;;;5113939;27;19930;-72
2024/01/28 14:11:25;;;;;;;;;;;9.60;59.80;;;;;;5115996;27;19930;-73
2024/01/28 14:13:50;;;;;;;;;;;9.40;61.00;;;;;;5133625;27;19924;-72
2024/01/28 14:16:16;;;;;;;;;;;9.20;62.40;;;;;;5114935;27;19935;-73
2024/01/28 14:18:45;;;;;;;;;;;9.10;64.00;;;;;;5115831;27;19923;-73
2024/01/28 14:21:10;;;;;;;;;;;9.10;64.90;;;;;;5108035;27;19931;-72